createdAt,value
2023-03-21T00:01:52.658Z,16.42
2023-03-21T00:04:24.977Z,16.05
2023-03-21T00:06:53.776Z,16.95
2023-03-21T00:09:22.090Z,15.18
2023-03-21T00:11:50.265Z,17.07
2023-03-21T00:14:21.608Z,17.13
2023-03-21T00:16:51.857Z,15.95
2023-03-21T00:19:27.399Z,14.15
2023-03-21T00:22:07.007Z,14.38
2023-03-21T00:24:37.770Z,10.40
2023-03-21T00:27:30.291Z,22.13
2023-03-21T00:29:56.639Z,17.88
2023-03-21T00:32:24.970Z,15.07
2023-03-21T00:37:41.600Z,11.07
2023-03-21T00:40:26.560Z,10.88
2023-03-21T00:42:58.068Z,20.83
2023-03-21T00:45:27.555Z,12.30
2023-03-21T00:47:55.964Z,11.23
2023-03-21T00:50:24.090Z,12.17
2023-03-21T00:52:52.364Z,11.43
2023-03-21T00:55:20.409Z,10.52
2023-03-21T00:57:56.280Z,10.57
2023-03-21T01:00:30.552Z,10.75
2023-03-21T01:03:11.143Z,11.03
2023-03-21T01:06:07.694Z,12.77
2023-03-21T01:08:54.540Z,12.40
2023-03-21T01:11:25.412Z,10.25
2023-03-21T01:14:04.239Z,20.40
2023-03-21T01:16:36.612Z,10.97
2023-03-21T01:19:22.090Z,10.82
2023-03-21T01:21:52.646Z,10.63
2023-03-21T01:24:20.608Z,10.45
2023-03-21T01:26:53.127Z,11.07
2023-03-21T01:30:17.432Z,12.53
2023-03-21T01:32:48.341Z,12.73
2023-03-21T01:35:16.829Z,11.48
2023-03-21T01:38:34.662Z,12.32
2023-03-21T01:41:08.611Z,11.13
2023-03-21T01:43:42.724Z,11.03
2023-03-21T01:46:11.306Z,11.32
2023-03-21T01:49:15.767Z,9.73
2023-03-21T01:51:56.699Z,10.13
2023-03-21T01:54:32.628Z,12.00
2023-03-21T01:57:06.317Z,11.33
2023-03-21T01:59:42.220Z,12.90
2023-03-21T02:02:28.406Z,11.73
2023-03-21T02:05:49.551Z,11.68
2023-03-21T02:08:18.076Z,12.50
2023-03-21T02:10:50.570Z,12.73
2023-03-21T02:13:32.276Z,12.20
2023-03-21T02:16:08.623Z,11.77
2023-03-21T02:18:46.472Z,12.30
2023-03-21T02:22:08.481Z,12.68
2023-03-21T02:25:21.362Z,13.30
2023-03-21T02:28:04.963Z,13.95
2023-03-21T02:31:11.771Z,13.95
2023-03-21T02:34:20.587Z,13.20
2023-03-21T02:36:58.754Z,12.73
2023-03-21T02:39:42.429Z,12.97
2023-03-21T02:42:31.823Z,12.93
2023-03-21T02:45:10.050Z,14.50
2023-03-21T02:48:06.994Z,13.43
2023-03-21T02:50:47.203Z,12.75
2023-03-21T02:53:20.328Z,12.73
2023-03-21T02:55:49.910Z,13.48
2023-03-21T02:58:22.546Z,14.25
2023-03-21T03:00:56.636Z,13.07
2023-03-21T03:03:39.674Z,13.13
2023-03-21T03:06:22.171Z,12.57
2023-03-21T03:09:29.241Z,12.32
2023-03-21T03:12:35.886Z,12.98
2023-03-21T03:15:35.332Z,14.02
2023-03-21T03:18:28.845Z,13.07
2023-03-21T03:21:15.352Z,12.47
2023-03-21T03:24:14.921Z,12.50
2023-03-21T03:26:48.703Z,12.50
2023-03-21T03:29:19.032Z,13.82
2023-03-21T03:32:05.819Z,15.02
2023-03-21T03:34:44.296Z,13.60
2023-03-21T03:37:16.572Z,13.75
2023-03-21T03:39:51.470Z,13.25
2023-03-21T03:42:37.258Z,14.00
2023-03-21T03:45:17.076Z,14.32
2023-03-21T03:47:58.486Z,13.60
2023-03-21T03:50:42.393Z,14.65
2023-03-21T03:53:28.928Z,14.60
2023-03-21T03:56:00.947Z,13.50
2023-03-21T03:58:44.604Z,14.10
2023-03-21T04:01:15.688Z,14.50
2023-03-21T04:03:53.001Z,14.95
2023-03-21T04:06:29.303Z,12.93
2023-03-21T04:08:58.095Z,13.85
2023-03-21T04:11:26.148Z,14.38
2023-03-21T04:13:55.592Z,15.10
2023-03-21T04:16:26.049Z,20.73
2023-03-21T04:18:55.590Z,22.13
2023-03-21T04:21:24.488Z,21.98
2023-03-21T04:23:55.665Z,17.85
2023-03-21T04:26:24.795Z,14.87
2023-03-21T04:29:25.994Z,14.13
2023-03-21T04:32:18.707Z,12.77
2023-03-21T04:34:57.216Z,13.45
2023-03-21T04:37:26.373Z,14.90
2023-03-21T04:39:55.623Z,14.03
2023-03-21T04:42:23.908Z,26.70
2023-03-21T04:44:52.184Z,39.72
2023-03-21T04:47:20.784Z,17.85
2023-03-21T04:49:49.071Z,14.25
2023-03-21T04:52:17.118Z,16.77
2023-03-21T04:54:45.381Z,15.32
2023-03-21T04:57:13.386Z,14.70
2023-03-21T04:59:41.886Z,15.25
2023-03-21T05:02:11.198Z,14.60
2023-03-21T05:04:39.851Z,18.97
2023-03-21T05:07:08.000Z,23.58
2023-03-21T05:09:36.605Z,21.85
2023-03-21T05:12:04.878Z,20.10
2023-03-21T05:14:34.463Z,17.23
2023-03-21T05:17:06.196Z,23.03
2023-03-21T05:19:36.139Z,32.63
2023-03-21T05:22:08.149Z,25.35
2023-03-21T05:24:42.265Z,20.48
2023-03-21T05:27:36.023Z,16.85
2023-03-21T05:30:15.649Z,14.70
2023-03-21T05:32:43.834Z,15.57
2023-03-21T05:35:13.810Z,16.30
2023-03-21T05:37:43.181Z,16.33
2023-03-21T05:40:12.757Z,15.73
2023-03-21T05:42:47.511Z,15.03
2023-03-21T05:45:21.415Z,15.82
2023-03-21T05:47:51.071Z,15.48
2023-03-21T05:50:21.444Z,15.77
2023-03-21T05:53:03.704Z,17.23
2023-03-21T05:55:32.450Z,18.63
2023-03-21T05:58:00.674Z,19.67
2023-03-21T06:00:32.833Z,21.70
2023-03-21T06:03:27.038Z,21.45
2023-03-21T06:06:09.581Z,18.80
2023-03-21T06:08:44.117Z,16.77
2023-03-21T06:11:28.405Z,17.30
2023-03-21T06:14:21.020Z,16.92
2023-03-21T06:17:11.170Z,19.15
2023-03-21T06:19:47.030Z,19.65
2023-03-21T06:22:37.101Z,19.40
2023-03-21T06:25:08.016Z,18.35
2023-03-21T06:27:38.132Z,21.33
2023-03-21T06:30:09.122Z,22.05
2023-03-21T06:32:46.928Z,19.98
2023-03-21T06:35:20.374Z,20.00
2023-03-21T06:37:49.957Z,20.52
2023-03-21T06:40:19.688Z,20.27
2023-03-21T06:42:48.404Z,20.70
2023-03-21T06:45:16.612Z,18.65
2023-03-21T06:47:45.446Z,19.03
2023-03-21T06:50:27.752Z,22.90
2023-03-21T06:52:58.049Z,21.25
2023-03-21T06:55:29.486Z,18.48
2023-03-21T06:58:00.767Z,17.17
2023-03-21T07:00:29.388Z,16.43
2023-03-21T07:02:58.317Z,16.27
2023-03-21T07:05:27.492Z,16.88
2023-03-21T07:07:56.234Z,16.83
2023-03-21T07:10:28.938Z,15.90
2023-03-21T07:13:07.974Z,16.20
2023-03-21T07:15:48.054Z,16.27
2023-03-21T07:18:17.022Z,16.50
2023-03-21T07:20:52.557Z,16.33
2023-03-21T07:23:26.136Z,17.52
2023-03-21T07:25:57.529Z,17.57
2023-03-21T07:28:26.031Z,17.38
2023-03-21T07:31:04.785Z,23.67
2023-03-21T07:33:34.342Z,18.48
2023-03-21T07:36:03.092Z,17.42
2023-03-21T07:38:31.977Z,15.50
2023-03-21T07:41:01.166Z,16.90
2023-03-21T07:43:34.792Z,16.98
2023-03-21T07:46:04.487Z,15.20
2023-03-21T07:48:33.098Z,14.60
2023-03-21T07:51:02.824Z,16.27
2023-03-21T07:53:31.568Z,14.43
2023-03-21T07:55:59.704Z,14.25
2023-03-21T07:58:29.037Z,13.25
2023-03-21T08:00:59.010Z,12.68
2023-03-21T08:03:29.845Z,14.00
2023-03-21T08:06:01.692Z,22.48
2023-03-21T08:08:30.107Z,23.35
2023-03-21T08:10:58.353Z,18.20
2023-03-21T08:13:28.234Z,16.73
2023-03-21T08:15:56.462Z,39.47
2023-03-21T08:18:25.044Z,27.23
2023-03-21T08:20:58.096Z,23.25
2023-03-21T08:23:27.166Z,22.17
2023-03-21T08:25:56.292Z,22.13
2023-03-21T08:28:25.089Z,21.60
2023-03-21T08:30:53.376Z,20.60
2023-03-21T08:33:22.015Z,22.17
2023-03-21T08:35:50.240Z,20.80
2023-03-21T08:38:18.906Z,18.00
2023-03-21T08:40:47.044Z,19.07
2023-03-21T08:43:15.939Z,20.33
2023-03-21T08:45:59.947Z,21.33
2023-03-21T08:48:28.679Z,17.42
2023-03-21T08:50:57.201Z,17.50
2023-03-21T08:53:26.138Z,16.10
2023-03-21T08:56:11.567Z,13.32
2023-03-21T08:58:40.359Z,15.50
2023-03-21T09:01:11.806Z,10.82
2023-03-21T09:03:40.726Z,10.10
2023-03-21T09:06:11.862Z,11.00
2023-03-21T09:08:42.460Z,10.75
2023-03-21T09:11:11.564Z,10.25
2023-03-21T09:13:40.490Z,10.05
2023-03-21T09:16:09.246Z,11.00
2023-03-21T09:18:51.098Z,10.73
2023-03-21T09:21:22.242Z,10.90
2023-03-21T09:23:53.496Z,10.43
2023-03-21T09:26:22.781Z,14.07
2023-03-21T09:28:52.462Z,10.90
2023-03-21T09:31:23.842Z,10.60
2023-03-21T09:33:53.750Z,9.40
2023-03-21T09:36:25.422Z,9.00
2023-03-21T09:38:58.192Z,9.88
2023-03-21T09:41:33.385Z,8.93
2023-03-21T09:44:42.656Z,9.23
2023-03-21T09:47:21.224Z,15.95
2023-03-21T09:50:13.573Z,10.35
2023-03-21T09:52:48.929Z,9.38
2023-03-21T09:55:36.857Z,8.70
2023-03-21T09:58:32.884Z,9.80
2023-03-21T10:01:28.896Z,10.82
2023-03-21T10:04:01.014Z,11.45
2023-03-21T10:06:39.757Z,10.90
2023-03-21T10:09:23.686Z,11.07
2023-03-21T10:12:01.999Z,10.90
2023-03-21T10:14:36.682Z,10.95
2023-03-21T10:17:41.962Z,9.63
2023-03-21T10:20:27.310Z,10.23
2023-03-21T10:23:46.053Z,10.68
2023-03-21T10:26:16.800Z,10.80
2023-03-21T10:28:53.149Z,10.18
2023-03-21T10:31:27.078Z,8.90
2023-03-21T10:34:08.086Z,9.10
2023-03-21T10:36:39.516Z,10.65
2023-03-21T10:39:34.245Z,9.60
2023-03-21T10:55:30.866Z,7.28
2023-03-21T10:58:19.415Z,8.97
2023-03-21T11:00:50.052Z,8.77
2023-03-21T11:03:37.370Z,8.55
2023-03-21T11:06:23.892Z,8.00
2023-03-21T11:08:56.869Z,9.30
2023-03-21T11:11:34.942Z,8.33
2023-03-21T11:14:08.593Z,8.05
2023-03-21T11:16:44.635Z,7.93
2023-03-21T11:19:33.082Z,8.10
2023-03-21T11:22:07.915Z,8.05
2023-03-21T11:25:03.095Z,7.60
2023-03-21T11:27:32.967Z,8.05
2023-03-21T11:30:05.504Z,8.13
2023-03-21T11:32:38.989Z,7.75
2023-03-21T11:35:33.643Z,7.10
2023-03-21T11:38:02.561Z,7.10
2023-03-21T11:40:36.446Z,6.78
2023-03-21T11:43:39.279Z,7.65
2023-03-21T11:46:14.977Z,7.05
2023-03-21T11:48:47.550Z,7.10
2023-03-21T11:51:43.454Z,7.13
2023-03-21T11:54:53.186Z,7.88
2023-03-21T11:58:13.854Z,7.05
2023-03-21T12:01:07.017Z,6.68
2023-03-21T12:04:06.483Z,6.88
2023-03-21T12:06:39.747Z,10.87
2023-03-21T12:09:34.756Z,15.40
2023-03-21T12:12:43.443Z,13.90
2023-03-21T12:15:25.134Z,8.68
2023-03-21T12:18:22.334Z,8.30
2023-03-21T12:21:40.734Z,6.97
2023-03-21T12:24:33.918Z,6.38
2023-03-21T12:31:11.104Z,6.57
2023-03-21T12:34:06.795Z,7.10
2023-03-21T12:36:43.210Z,9.80
2023-03-21T12:39:55.447Z,10.38
2023-03-21T12:42:49.885Z,8.90
2023-03-21T12:45:37.429Z,7.28
2023-03-21T12:48:37.905Z,7.25
2023-03-21T12:51:12.542Z,6.30
2023-03-21T12:53:48.834Z,9.07
2023-03-21T12:56:59.859Z,17.10
2023-03-21T12:59:32.982Z,9.77
2023-03-21T13:02:34.323Z,10.20
2023-03-21T13:05:30.087Z,14.37
2023-03-21T13:08:34.374Z,8.85
2023-03-21T13:11:04.592Z,7.22
2023-03-21T13:13:45.201Z,9.20
2023-03-21T13:16:44.030Z,8.48
2023-03-21T13:19:12.850Z,6.13
2023-03-21T13:21:44.527Z,6.55
2023-03-21T13:24:24.986Z,7.63
2023-03-21T13:27:12.745Z,6.35
2023-03-21T13:29:51.510Z,4.75
2023-03-21T13:32:31.921Z,4.70
2023-03-21T13:35:13.379Z,4.68
2023-03-21T13:37:44.754Z,6.13
2023-03-21T13:43:51.881Z,5.80
2023-03-21T13:46:26.804Z,5.30
2023-03-21T13:49:03.342Z,3.97
2023-03-21T13:51:31.918Z,3.70
2023-03-21T13:54:02.034Z,3.60
2023-03-21T13:56:49.586Z,4.22
2023-03-21T13:59:39.007Z,4.57
2023-03-21T14:02:13.912Z,3.40
2023-03-21T14:05:03.754Z,3.80
2023-03-21T14:08:06.093Z,3.60
2023-03-21T14:10:49.839Z,3.80
2023-03-21T14:13:24.439Z,4.10
2023-03-21T14:16:03.212Z,4.80
2023-03-21T14:18:59.553Z,6.07
2023-03-21T14:21:31.676Z,7.75
2023-03-21T14:24:13.071Z,4.18
2023-03-21T14:26:44.046Z,6.13
2023-03-21T14:29:26.273Z,4.80
2023-03-21T14:31:57.046Z,4.60
2023-03-21T14:34:28.390Z,5.70
2023-03-21T14:36:58.949Z,5.88
2023-03-21T14:39:58.444Z,5.70
2023-03-21T14:42:28.507Z,5.20
2023-03-21T14:45:00.892Z,5.15
2023-03-21T14:47:32.602Z,6.10
2023-03-21T14:50:03.835Z,5.53
2023-03-21T14:52:34.665Z,5.77
2023-03-21T14:55:19.054Z,10.75
2023-03-21T14:57:52.831Z,14.23
2023-03-21T15:00:37.201Z,4.60
2023-03-21T15:03:06.094Z,6.55
2023-03-21T15:05:38.182Z,4.37
2023-03-21T15:08:12.195Z,5.20
2023-03-21T15:10:40.829Z,4.70
2023-03-21T15:13:21.441Z,5.60
2023-03-21T15:16:17.109Z,6.15
2023-03-21T15:18:46.066Z,7.87
2023-03-21T15:21:23.773Z,7.38
2023-03-21T15:24:34.417Z,4.35
2023-03-21T15:27:21.012Z,3.65
2023-03-21T15:30:25.150Z,4.72
2023-03-21T15:32:59.993Z,4.10
2023-03-21T15:35:39.516Z,3.90
2023-03-21T15:38:30.329Z,4.60
2023-03-21T15:41:27.902Z,3.53
2023-03-21T15:44:11.108Z,5.28
2023-03-21T15:46:53.103Z,5.30
2023-03-21T15:49:25.876Z,2.85
2023-03-21T15:51:59.544Z,3.78
2023-03-21T15:54:56.250Z,4.25
2023-03-21T15:57:30.312Z,3.33
2023-03-21T16:00:22.931Z,2.90
2023-03-21T16:02:59.717Z,4.18
2023-03-21T16:09:15.545Z,4.43
2023-03-21T16:11:52.673Z,8.88
2023-03-21T16:14:22.318Z,7.57
2023-03-21T16:16:52.016Z,9.30
2023-03-21T16:19:20.244Z,6.88
2023-03-21T16:21:48.541Z,14.13
2023-03-21T16:24:17.400Z,6.30
2023-03-21T16:26:48.388Z,8.10
2023-03-21T16:29:16.628Z,7.43
2023-03-21T16:31:53.954Z,5.93
2023-03-21T16:34:22.172Z,5.93
2023-03-21T16:36:55.436Z,4.45
2023-03-21T16:39:29.321Z,4.13
2023-03-21T16:41:58.622Z,3.85
2023-03-21T16:44:27.477Z,4.07
2023-03-21T16:46:56.005Z,5.03
2023-03-21T16:49:27.169Z,6.55
2023-03-21T16:51:56.715Z,7.37
2023-03-21T16:54:27.275Z,9.63
2023-03-21T16:56:56.567Z,11.43
2023-03-21T16:59:24.865Z,13.13
2023-03-21T17:01:53.284Z,11.43
2023-03-21T17:04:21.259Z,13.33
2023-03-21T17:06:52.082Z,16.17
2023-03-21T17:09:23.553Z,14.75
2023-03-21T17:11:52.107Z,17.67
2023-03-21T17:14:22.048Z,13.95
2023-03-21T17:16:50.671Z,11.83
2023-03-21T17:22:13.396Z,10.50
2023-03-21T17:29:04.525Z,11.27
2023-03-21T17:31:36.251Z,10.13
2023-03-21T17:34:05.171Z,11.10
2023-03-21T17:36:39.394Z,9.57
2023-03-21T17:39:13.306Z,8.98
2023-03-21T17:41:41.996Z,8.95
2023-03-21T17:44:10.449Z,8.27
2023-03-21T17:46:38.849Z,8.13
2023-03-21T17:49:07.793Z,13.48
2023-03-21T17:51:36.219Z,14.88
2023-03-21T17:54:06.573Z,10.95
2023-03-21T17:56:37.872Z,9.53
2023-03-21T17:59:08.331Z,10.02
2023-03-21T18:01:36.632Z,9.57
2023-03-21T18:04:05.927Z,9.73
2023-03-21T18:06:35.027Z,27.60
2023-03-21T18:09:07.463Z,20.70
2023-03-21T18:11:35.298Z,18.58
2023-03-21T18:14:15.430Z,18.42
2023-03-21T18:16:44.437Z,23.95
2023-03-21T18:19:14.993Z,20.13
2023-03-21T18:21:45.951Z,9.43
2023-03-21T18:24:15.891Z,8.32
2023-03-21T18:26:44.725Z,8.15
2023-03-21T18:30:17.503Z,9.25
2023-03-21T18:32:08.353Z,9.18
2023-03-21T18:34:39.390Z,13.07
2023-03-21T18:37:09.762Z,21.08
2023-03-21T18:39:39.353Z,20.88
2023-03-21T18:42:10.820Z,13.00
2023-03-21T18:44:46.132Z,10.52
2023-03-21T18:47:15.048Z,14.53
2023-03-21T18:52:32.507Z,11.48
2023-03-21T18:55:01.421Z,11.32
2023-03-21T18:57:38.420Z,10.80
2023-03-21T19:00:17.563Z,10.90
2023-03-21T19:02:49.062Z,9.95
2023-03-21T19:05:23.038Z,9.85
2023-03-21T19:07:52.453Z,11.68
2023-03-21T19:10:23.008Z,11.85
2023-03-21T19:12:52.883Z,13.20
2023-03-21T19:15:25.133Z,13.00
2023-03-21T19:20:48.028Z,17.17
2023-03-21T19:23:17.717Z,17.48
2023-03-21T19:25:47.979Z,16.00
2023-03-21T19:28:16.161Z,16.85
2023-03-21T19:30:50.107Z,12.70
2023-03-21T19:33:20.604Z,12.18
2023-03-21T19:36:08.891Z,12.23
2023-03-21T19:38:38.886Z,9.00
2023-03-21T19:41:07.599Z,8.68
2023-03-21T19:43:35.815Z,7.22
2023-03-21T19:46:04.412Z,7.90
2023-03-21T19:48:32.861Z,7.13
2023-03-21T19:53:51.524Z,6.30
2023-03-21T19:56:23.097Z,7.47
2023-03-21T19:58:55.726Z,8.75
2023-03-21T20:01:25.171Z,6.47
2023-03-21T20:03:53.135Z,7.47
2023-03-21T20:06:24.752Z,9.13
2023-03-21T20:11:42.477Z,10.20
2023-03-21T20:14:10.470Z,9.10
2023-03-21T20:16:38.798Z,10.07
2023-03-21T20:19:10.666Z,10.35
2023-03-21T20:21:52.290Z,11.80
2023-03-21T20:24:23.000Z,8.63
2023-03-21T20:27:24.371Z,12.85
2023-03-21T20:30:10.111Z,12.03
2023-03-21T20:32:44.413Z,14.30
2023-03-21T20:35:21.372Z,15.43
2023-03-21T20:37:56.793Z,15.68
2023-03-21T20:40:24.710Z,13.23
2023-03-21T20:42:55.190Z,15.03
2023-03-21T20:45:23.475Z,12.13
2023-03-21T20:47:51.585Z,11.43
2023-03-21T20:50:22.207Z,14.35
2023-03-21T20:53:06.985Z,15.82
2023-03-21T20:55:37.325Z,15.73
2023-03-21T20:58:26.731Z,14.57
2023-03-21T21:00:54.111Z,13.85
2023-03-21T21:03:23.055Z,18.08
2023-03-21T21:05:50.976Z,20.42
2023-03-21T21:08:19.816Z,31.53
2023-03-21T21:11:19.092Z,17.60
2023-03-21T21:14:34.673Z,15.75
2023-03-21T21:17:20.880Z,16.80
2023-03-21T21:19:51.221Z,16.95
2023-03-21T21:22:18.984Z,18.07
2023-03-21T21:24:47.149Z,17.65
2023-03-21T21:31:15.162Z,15.45
2023-03-21T21:33:44.225Z,14.20
2023-03-21T21:36:13.357Z,13.30
2023-03-21T21:38:44.083Z,11.88
2023-03-21T21:41:18.956Z,9.90
2023-03-21T21:43:48.514Z,10.20
2023-03-21T21:49:59.804Z,8.60
2023-03-21T21:52:27.792Z,7.95
2023-03-21T21:54:55.524Z,8.10
2023-03-21T21:57:23.587Z,8.38
2023-03-21T21:59:54.323Z,9.57
2023-03-21T22:02:25.890Z,10.53
2023-03-21T22:04:59.988Z,16.13
2023-03-21T22:07:28.744Z,12.00
2023-03-21T22:09:56.519Z,10.32
2023-03-21T22:12:24.707Z,10.45
2023-03-21T22:14:52.322Z,19.47
2023-03-21T22:17:20.424Z,25.30
2023-03-21T22:20:02.663Z,30.27
2023-03-21T22:22:39.610Z,26.25
2023-03-21T22:25:10.935Z,26.20
2023-03-21T22:27:39.148Z,22.90
2023-03-21T22:30:09.621Z,22.00
2023-03-21T22:32:38.959Z,20.90
2023-03-21T22:35:09.159Z,13.75
2023-03-21T22:37:40.647Z,10.82
2023-03-21T22:40:15.028Z,11.23
2023-03-21T22:42:44.109Z,10.73
2023-03-21T22:46:06.123Z,10.38
2023-03-21T22:48:35.244Z,10.40
2023-03-21T22:51:03.864Z,7.63
2023-03-21T22:53:32.073Z,8.93
2023-03-21T22:55:59.812Z,8.57
2023-03-21T22:58:27.891Z,7.43
2023-03-21T23:01:02.044Z,8.18
2023-03-21T23:03:30.781Z,7.72
2023-03-21T23:06:01.979Z,7.97
2023-03-21T23:08:31.153Z,6.78
2023-03-21T23:10:59.139Z,6.82
2023-03-21T23:13:27.265Z,7.70
2023-03-21T23:15:54.852Z,8.75
2023-03-21T23:18:23.035Z,8.60
2023-03-21T23:20:50.856Z,8.85
2023-03-21T23:23:18.851Z,7.60
2023-03-21T23:25:46.551Z,8.05
2023-03-21T23:28:18.513Z,6.95
2023-03-21T23:30:46.355Z,7.20
2023-03-21T23:33:14.385Z,7.72
2023-03-21T23:35:42.228Z,7.45
2023-03-21T23:38:10.233Z,8.00
2023-03-21T23:40:41.432Z,7.93
2023-03-21T23:43:09.973Z,7.20
2023-03-21T23:45:37.496Z,7.72
2023-03-21T23:48:05.980Z,7.63
2023-03-21T23:50:34.352Z,8.50
2023-03-21T23:53:02.514Z,9.60
2023-03-21T23:55:30.043Z,9.97
2023-03-21T23:58:00.998Z,8.60
